Time;durP1;ratioP1;P1;durP2;ratioP2;P2;SDS_P1;SDS_P2;PMS_P1;PMS_P2;Temp;Humidity;BMP_temperature;BMP_pressure;BME280_temperature;BME280_humidity;BME280_pressure;Samples;Min_cycle;Max_cycle;Signal;HPM_P1;HPM_P2
2022/01/22 00:00:20;;;;;;;20.63;18.45;;;;;;;-3.22;100.00;99032.94;2090915;28;20190;-70
2022/01/22 00:01:22;;;;;;;19.88;17.80;;;;;;;-3.25;100.00;99031.56;2090623;28;20226;-71
2022/01/22 00:02:24;;;;;;;19.45;17.50;;;;;;;-3.19;100.00;99041.16;2090761;28;20209;-70
2022/01/22 00:03:26;;;;;;;20.40;18.00;;;;;;;-3.05;100.00;99036.66;2091585;28;20195;-70
2022/01/22 00:04:27;;;;;;;18.70;17.08;;;;;;;-2.96;100.00;99038.03;2091392;28;20198;-72
2022/01/22 00:05:29;;;;;;;21.17;18.23;;;;;;;-2.94;100.00;99038.66;2091416;28;20218;-70
2022/01/22 00:06:30;;;;;;;20.55;17.60;;;;;;;-2.97;100.00;99046.88;2091017;28;20250;-70
2022/01/22 00:07:32;;;;;;;21.13;17.00;;;;;;;-3.07;100.00;99043.91;2090683;28;20735;-70
2022/01/22 00:08:34;;;;;;;19.77;17.77;;;;;;;-3.10;100.00;99035.72;2082532;28;20211;-70
2022/01/22 00:09:46;;;;;;;18.75;16.88;;;;;;;-3.02;100.00;99046.72;2082645;28;20204;-70
2022/01/22 00:10:52;;;;;;;19.55;17.42;;;;;;;-3.05;100.00;99041.88;2090824;28;20293;-70
2022/01/22 00:11:56;;;;;;;19.80;18.00;;;;;;;-2.97;100.00;99046.06;2091309;28;20187;-70
2022/01/22 00:14:23;;;;;;;19.08;17.23;;;;;;;-3.01;100.00;99043.09;2091305;28;20648;-70
2022/01/22 00:14:28;;;;;;;17.88;16.38;;;;;;;-2.97;100.00;99036.44;2090457;28;20182;-70
2022/01/22 00:15:32;;;;;;;17.45;15.85;;;;;;;-3.04;100.00;99034.84;2090740;28;20179;-70
2022/01/22 00:16:34;;;;;;;17.27;15.73;;;;;;;-3.02;100.00;99041.50;2090838;28;20203;-70
2022/01/22 00:17:35;;;;;;;16.77;15.05;;;;;;;-3.03;100.00;99039.09;2090745;28;20214;-70
2022/01/22 00:18:41;;;;;;;17.02;15.68;;;;;;;-3.06;100.00;99034.28;2090548;28;20225;-72
2022/01/22 00:19:41;;;;;;;16.95;15.55;;;;;;;-3.14;100.00;99033.50;2082720;28;20214;-70
2022/01/22 00:20:43;;;;;;;16.77;15.30;;;;;;;-3.20;100.00;99044.78;2082345;28;20192;-70
2022/01/22 00:21:45;;;;;;;17.90;16.33;;;;;;;-3.13;100.00;99036.91;2081951;28;20586;-70
2022/01/22 00:22:50;;;;;;;17.67;15.93;;;;;;;-3.21;100.00;99037.97;2082533;28;20204;-70
2022/01/22 00:23:56;;;;;;;16.48;15.27;;;;;;;-3.26;100.00;99043.00;2090696;28;20669;-70
2022/01/22 00:25:01;;;;;;;16.33;14.85;;;;;;;-3.27;100.00;99048.44;2091477;28;20221;-70
2022/01/22 00:26:05;;;;;;;15.75;14.50;;;;;;;-3.21;100.00;99048.41;2091312;28;20246;-70
2022/01/22 00:27:07;;;;;;;15.65;14.38;;;;;;;-3.34;100.00;99042.44;2091200;28;20693;-70
2022/01/22 00:28:08;;;;;;;16.52;15.07;;;;;;;-3.34;100.00;99045.84;2091360;28;20191;-70
2022/01/22 00:29:10;;;;;;;14.90;13.73;;;;;;;-3.35;100.00;99043.44;2091454;28;20183;-70
2022/01/22 00:30:13;;;;;;;17.65;14.82;;;;;;;-3.39;100.00;99042.22;2090645;28;20203;-71
2022/01/22 00:31:15;;;;;;;16.20;14.90;;;;;;;-3.44;100.00;99043.66;2082475;28;20208;-71
2022/01/22 00:32:16;;;;;;;16.08;14.80;;;;;;;-3.32;100.00;99054.25;2082260;28;20682;-70
2022/01/22 00:33:19;;;;;;;16.83;15.18;;;;;;;-3.43;100.00;99039.25;2082287;28;20192;-70
2022/01/22 00:34:20;;;;;;;17.60;16.10;;;;;;;-3.34;100.00;99034.59;2090837;28;20202;-70
2022/01/22 00:35:23;;;;;;;15.93;14.80;;;;;;;-3.45;100.00;99034.25;2091224;28;20190;-70
2022/01/22 00:36:24;;;;;;;16.50;15.15;;;;;;;-3.45;100.00;99036.06;2090445;28;20717;-70
2022/01/22 00:37:27;;;;;;;16.17;14.77;;;;;;;-3.43;100.00;99034.81;2090347;28;20582;-70
2022/01/22 00:38:28;;;;;;;16.48;15.10;;;;;;;-3.49;100.00;99030.44;2082328;28;20199;-71
2022/01/22 00:39:33;;;;;;;16.40;15.13;;;;;;;-3.47;100.00;99033.66;2090517;28;20187;-71
2022/01/22 00:40:36;;;;;;;16.75;15.50;;;;;;;-3.49;100.00;99024.41;2091279;28;20190;-72
2022/01/22 00:41:37;;;;;;;16.08;14.98;;;;;;;-3.47;100.00;99025.81;2091254;28;20517;-70
2022/01/22 00:42:38;;;;;;;15.60;14.45;;;;;;;-3.43;100.00;99018.38;2091097;28;20194;-71
2022/01/22 00:43:45;;;;;;;15.40;14.20;;;;;;;-3.40;100.00;99023.19;2090810;28;20207;-70
2022/01/22 00:44:51;;;;;;;15.45;14.32;;;;;;;-3.43;100.00;99016.56;2083151;28;20195;-71
2022/01/22 00:45:54;;;;;;;15.20;14.20;;;;;;;-3.45;100.00;99021.19;2082975;28;20199;-73
2022/01/22 00:46:55;;;;;;;16.13;14.95;;;;;;;-3.45;100.00;99015.19;2082266;28;20588;-72
2022/01/22 00:47:56;;;;;;;16.00;14.80;;;;;;;-3.39;100.00;99016.16;2090682;28;20214;-72
2022/01/22 00:48:57;;;;;;;15.85;14.50;;;;;;;-3.39;100.00;99019.56;2091263;28;20195;-72
2022/01/22 00:49:59;;;;;;;15.20;14.20;;;;;;;-3.44;100.00;99017.59;2091067;28;20186;-72
2022/01/22 00:51:01;;;;;;;15.02;13.95;;;;;;;-3.47;100.00;99023.22;2089798;28;20562;-72
2022/01/22 00:52:06;;;;;;;15.30;14.15;;;;;;;-3.45;100.00;99015.97;2090585;28;20658;-71
2022/01/22 00:53:09;;;;;;;15.70;14.60;;;;;;;-3.50;100.00;99018.41;2090369;28;20642;-71
2022/01/22 00:54:11;;;;;;;15.43;14.38;;;;;;;-3.50;100.00;99015.78;2082093;28;20200;-71
2022/01/22 00:55:13;;;;;;;15.20;14.13;;;;;;;-3.46;100.00;99008.38;2082090;28;20291;-75
2022/01/22 00:56:16;;;;;;;15.52;14.40;;;;;;;-3.43;100.00;98998.31;2082153;28;20743;-74
2022/01/22 00:57:17;;;;;;;15.25;14.05;;;;;;;-3.37;100.00;99004.53;2090305;28;20721;-75
2022/01/22 00:58:21;;;;;;;15.35;14.35;;;;;;;-3.46;100.00;98992.72;2090321;28;20306;-72
2022/01/22 00:59:22;;;;;;;15.18;14.18;;;;;;;-3.47;100.00;98994.53;2081911;28;20195;-69
2022/01/22 01:00:24;;;;;;;15.97;14.40;;;;;;;-3.41;100.00;99001.50;2081553;28;20192;-69
2022/01/22 01:01:28;;;;;;;14.52;13.35;;;;;;;-3.42;100.00;98986.06;2082191;28;20240;-69
2022/01/22 01:02:30;;;;;;;14.98;13.68;;;;;;;-3.43;100.00;98982.66;2090383;28;20569;-69
2022/01/22 01:03:33;;;;;;;14.88;13.70;;;;;;;-3.46;100.00;98993.53;2090213;28;20260;-69
2022/01/22 01:04:39;;;;;;;15.80;14.50;;;;;;;-3.47;100.00;98989.31;2090429;28;20571;-69
2022/01/22 01:05:41;;;;;;;15.98;14.68;;;;;;;-3.49;100.00;98993.91;2090216;28;20226;-69
2022/01/22 01:06:44;;;;;;;16.38;14.98;;;;;;;-3.49;100.00;99003.56;2089967;28;20223;-69
2022/01/22 01:07:46;;;;;;;15.85;14.65;;;;;;;-3.42;100.00;99007.75;2090196;28;20211;-69
2022/01/22 01:08:48;;;;;;;16.50;15.18;;;;;;;-3.45;100.00;99009.97;2090302;28;20219;-70
2022/01/22 01:09:49;;;;;;;17.00;15.70;;;;;;;-3.44;100.00;99009.75;2091025;28;20191;-70
2022/01/22 01:10:52;;;;;;;16.30;15.20;;;;;;;-3.43;100.00;99008.75;2090146;28;20287;-71
2022/01/22 01:11:59;;;;;;;16.83;15.65;;;;;;;-3.40;100.00;99007.53;2082153;28;20199;-69
2022/01/22 01:13:01;;;;;;;16.88;15.77;;;;;;;-3.37;100.00;99003.72;2082793;28;20188;-70
2022/01/22 01:14:05;;;;;;;16.45;15.15;;;;;;;-3.40;100.00;99004.91;2081991;28;20213;-70
2022/01/22 01:15:17;;;;;;;16.70;15.50;;;;;;;-3.42;100.00;99002.53;2082226;28;20587;-69
2022/01/22 01:16:32;;;;;;;16.20;14.90;;;;;;;-3.38;100.00;98995.09;2090169;28;20218;-69
2022/01/22 01:17:47;;;;;;;15.20;14.05;;;;;;;-3.37;100.00;98995.91;2083716;28;20666;-69
2022/01/22 01:32:17;;;;;;;14.73;13.90;;;;;;;-3.32;100.00;98964.75;2090033;28;20641;-70
2022/01/22 01:33:25;;;;;;;14.25;13.35;;;;;;;-3.35;100.00;98958.16;2083476;28;20199;-70
2022/01/22 01:34:27;;;;;;;14.90;13.65;;;;;;;-3.42;100.00;98963.41;2082681;28;20199;-71
2022/01/22 01:35:31;;;;;;;14.57;13.63;;;;;;;-3.46;100.00;98962.22;2082027;28;20210;-69
2022/01/22 01:36:33;;;;;;;14.63;13.73;;;;;;;-3.46;100.00;98966.66;2081498;28;20677;-69
2022/01/22 01:37:35;;;;;;;14.38;13.48;;;;;;;-3.48;100.00;98959.00;2082029;28;20211;-70
2022/01/22 01:38:41;;;;;;;14.60;13.70;;;;;;;-3.46;100.00;98964.84;2081759;28;20206;-69
2022/01/22 01:39:44;;;;;;;15.05;14.10;;;;;;;-3.42;100.00;98967.81;2082427;28;20656;-69
2022/01/22 01:40:53;;;;;;;14.55;13.65;;;;;;;-3.50;100.00;98973.28;2081428;28;20204;-69
2022/01/22 01:42:01;;;;;;;14.15;13.32;;;;;;;-3.50;100.00;98978.47;2082941;28;20195;-70
2022/01/22 01:43:08;;;;;;;14.77;13.77;;;;;;;-3.57;100.00;98981.09;2082779;28;20188;-70
2022/01/22 01:44:11;;;;;;;14.20;13.40;;;;;;;-3.53;100.00;98977.09;2082486;28;20188;-70
2022/01/22 01:45:34;;;;;;;14.73;13.88;;;;;;;-3.53;100.00;98982.31;2083067;28;20226;-70
2022/01/22 01:46:34;;;;;;;14.75;13.85;;;;;;;-3.51;100.00;98985.50;2089946;28;20199;-70
2022/01/22 01:47:38;;;;;;;14.50;13.50;;;;;;;-3.53;100.00;98986.72;2082099;28;20212;-70
2022/01/22 01:48:42;;;;;;;14.93;14.02;;;;;;;-3.50;100.00;98984.50;2081922;28;20681;-69
2022/01/22 01:49:44;;;;;;;14.52;13.63;;;;;;;-3.53;100.00;98990.13;2082036;28;20200;-70
2022/01/22 01:50:58;;;;;;;14.98;14.07;;;;;;;-3.50;100.00;98994.94;2081841;28;20188;-70
2022/01/22 01:52:02;;;;;;;14.40;13.50;;;;;;;-3.52;100.00;98986.53;2073784;28;20242;-70
2022/01/22 01:53:09;;;;;;;15.18;14.18;;;;;;;-3.49;100.00;98986.09;2081935;28;20184;-70
2022/01/22 01:54:27;;;;;;;14.50;13.60;;;;;;;-3.46;100.00;98983.09;2081668;28;20222;-69
2022/01/22 01:55:35;;;;;;;14.48;13.48;;;;;;;-3.41;100.00;98979.84;2076009;28;20195;-70
2022/01/22 01:58:05;;;;;;;15.07;13.88;;;;;;;-3.36;100.00;98966.19;2076008;28;20230;-69
2022/01/22 01:59:14;;;;;;;14.30;13.50;;;;;;;-3.43;100.00;98959.19;2074310;28;20215;-69
2022/01/22 02:00:20;;;;;;;14.30;13.40;;;;;;;-3.28;100.00;98960.75;2074080;28;20196;-69
2022/01/22 02:01:25;;;;;;;15.20;14.20;;;;;;;-3.32;100.00;98956.94;2074542;28;20287;-69
2022/01/22 02:02:30;;;;;;;14.43;13.60;;;;;;;-3.39;100.00;98954.34;2073373;28;20208;-69
2022/01/22 02:03:32;;;;;;;14.10;13.30;;;;;;;-3.28;100.00;98958.13;2073753;28;20592;-69
2022/01/22 02:04:51;;;;;;;13.90;13.10;;;;;;;-3.31;100.00;98948.91;2075985;28;20204;-69
2022/01/22 02:05:54;;;;;;;13.70;12.90;;;;;;;-3.36;100.00;98953.16;2073230;28;20201;-69
2022/01/22 02:06:55;;;;;;;14.65;13.82;;;;;;;-3.35;100.00;98952.16;2081540;28;20253;-69
2022/01/22 02:07:58;;;;;;;14.48;13.68;;;;;;;-3.31;100.00;98961.13;2073421;28;20196;-69
2022/01/22 02:09:08;;;;;;;14.32;13.38;;;;;;;-3.23;100.00;98966.91;2074302;28;20199;-69
2022/01/22 02:10:15;;;;;;;14.40;13.38;;;;;;;-3.25;100.00;98968.16;2073788;28;20211;-69
2022/01/22 02:11:19;;;;;;;14.43;13.50;;;;;;;-3.26;100.00;98963.94;2082014;28;20560;-69
2022/01/22 02:13:27;;;;;;;14.50;13.70;;;;;;;-3.22;100.00;98972.94;2081567;28;20241;-69
2022/01/22 02:23:30;;;;;;;15.30;14.40;;;;;;;-3.18;100.00;98958.47;2077147;28;20195;-69
2022/01/22 02:24:23;;;;;;;14.88;13.93;;;;;;;-3.32;100.00;98962.94;2075722;28;20222;-69
2022/01/22 02:25:25;;;;;;;14.93;13.93;;;;;;;-3.39;100.00;98956.16;2073459;28;20196;-69
2022/01/22 02:26:28;;;;;;;14.98;14.07;;;;;;;-3.43;100.00;98961.81;2073280;28;20227;-70
2022/01/22 02:27:31;;;;;;;15.30;14.30;;;;;;;-3.45;100.00;98961.22;2073539;28;20208;-70
2022/01/22 02:28:33;;;;;;;14.80;13.85;;;;;;;-3.43;100.00;98961.81;2073445;28;20197;-69
2022/01/22 02:29:35;;;;;;;15.30;14.13;;;;;;;-3.36;100.00;98950.56;2073458;28;20200;-69
2022/01/22 02:31:00;;;;;;;16.15;15.05;;;;;;;-3.37;100.00;98959.38;2075842;28;20663;-69
2022/01/22 02:32:55;;;;;;;15.40;14.30;;;;;;;-3.46;100.00;98954.41;2077177;28;20686;-69
2022/01/22 02:34:04;;;;;;;14.98;13.98;;;;;;;-3.49;100.00;98956.63;2077690;28;20223;-68
2022/01/22 02:35:11;;;;;;;15.52;14.63;;;;;;;-3.55;100.00;98968.69;2074416;28;20185;-69
2022/01/22 02:36:18;;;;;;;14.68;13.68;;;;;;;-3.59;100.00;98966.69;2075952;28;20235;-69
2022/01/22 02:37:25;;;;;;;15.50;14.50;;;;;;;-3.62;100.00;98962.69;2082405;28;20204;-68
2022/01/22 02:38:34;;;;;;;16.25;15.20;;;;;;;-3.65;100.00;98963.09;2081936;28;20192;-68
2022/01/22 02:39:41;;;;;;;15.30;14.27;;;;;;;-3.66;100.00;98971.91;2082374;28;20195;-68
2022/01/22 02:40:45;;;;;;;15.23;14.20;;;;;;;-3.68;100.00;98973.94;2082219;28;20695;-69
2022/01/22 02:41:51;;;;;;;16.40;15.32;;;;;;;-3.78;100.00;98969.16;2081800;28;20203;-68
2022/01/22 02:42:54;;;;;;;15.80;14.57;;;;;;;-3.81;100.00;98968.78;2082020;28;20200;-68
2022/01/22 02:43:57;;;;;;;14.50;13.60;;;;;;;-3.82;100.00;98974.97;2081497;28;20207;-68
2022/01/22 02:44:58;;;;;;;15.50;14.40;;;;;;;-3.86;100.00;98971.19;2081471;28;20559;-68
2022/01/22 02:46:01;;;;;;;16.37;15.13;;;;;;;-3.82;100.00;98973.19;2081343;28;20206;-68
2022/01/22 02:47:06;;;;;;;16.10;14.80;;;;;;;-3.87;100.00;98978.22;2081639;28;20671;-68
2022/01/22 02:48:08;;;;;;;15.88;14.57;;;;;;;-3.89;100.00;98984.63;2081903;28;20604;-69
2022/01/22 02:49:10;;;;;;;16.63;15.43;;;;;;;-3.88;100.00;98976.63;2081475;28;20226;-67
2022/01/22 02:50:13;;;;;;;16.90;15.60;;;;;;;-3.88;100.00;98991.44;2081312;28;20198;-68
2022/01/22 02:51:16;;;;;;;16.40;15.07;;;;;;;-3.90;100.00;98985.66;2081338;28;20224;-68
2022/01/22 02:52:20;;;;;;;16.55;15.07;;;;;;;-3.94;100.00;98984.44;2081346;28;20242;-67
2022/01/22 02:53:24;;;;;;;16.15;15.00;;;;;;;-3.96;100.00;98981.25;2073500;28;20204;-69
2022/01/22 02:54:27;;;;;;;16.63;15.10;;;;;;;-3.96;100.00;98986.44;2073466;28;20643;-68
2022/01/22 02:55:28;;;;;;;15.93;14.63;;;;;;;-4.03;100.00;98969.03;2073240;28;20200;-68
2022/01/22 02:56:31;;;;;;;16.05;14.80;;;;;;;-4.03;100.00;98982.03;2073329;28;20200;-68
2022/01/22 02:57:35;;;;;;;16.05;14.70;;;;;;;-4.01;100.00;98980.03;2073255;28;20623;-68
2022/01/22 02:58:37;;;;;;;16.30;15.10;;;;;;;-4.05;100.00;98978.84;2073448;28;20220;-69
2022/01/22 02:59:40;;;;;;;16.63;15.30;;;;;;;-4.10;100.00;98970.84;2081398;28;20211;-69
2022/01/22 03:00:45;;;;;;;16.15;14.90;;;;;;;-4.07;100.00;98970.44;2089499;28;20195;-68
2022/01/22 03:01:46;;;;;;;15.82;14.80;;;;;;;-4.05;100.00;98975.44;2089110;28;20222;-69
2022/01/22 03:02:49;;;;;;;16.50;15.37;;;;;;;-4.06;100.00;98977.25;2081395;28;20655;-68
2022/01/22 03:03:50;;;;;;;16.27;15.07;;;;;;;-4.11;100.00;98969.22;2081238;28;20322;-68
2022/01/22 03:04:54;;;;;;;16.25;14.95;;;;;;;-4.14;100.00;98979.28;2073152;28;20669;-68
2022/01/22 03:05:55;;;;;;;16.17;14.90;;;;;;;-4.17;100.00;98975.28;2073279;28;20207;-69
2022/01/22 03:06:57;;;;;;;16.87;15.57;;;;;;;-4.23;100.00;98978.69;2081222;28;20278;-68
2022/01/22 03:08:04;;;;;;;15.75;14.55;;;;;;;-4.25;100.00;98970.28;2081321;28;20539;-68
2022/01/22 03:09:10;;;;;;;16.50;15.05;;;;;;;-4.23;100.00;98976.06;2082131;28;20223;-69
2022/01/22 03:10:14;;;;;;;16.25;14.95;;;;;;;-4.21;100.00;98978.47;2081723;28;20188;-68
2022/01/22 03:11:23;;;;;;;16.60;15.40;;;;;;;-4.27;100.00;98978.25;2089524;28;20261;-69
2022/01/22 03:15:33;;;;;;;17.90;16.45;;;;;;;-4.29;100.00;98982.88;2075515;28;20203;-68
2022/01/22 03:16:50;;;;;;;16.83;15.55;;;;;;;-4.31;100.00;98979.69;2085273;28;20626;-68
2022/01/22 03:17:58;;;;;;;16.60;15.40;;;;;;;-4.31;100.00;98984.91;2083571;28;20636;-68
2022/01/22 03:19:11;;;;;;;17.45;16.10;;;;;;;-4.34;100.00;98982.72;2082099;28;20192;-68
2022/01/22 03:20:32;;;;;;;16.50;15.30;;;;;;;-4.35;100.00;98982.88;2089777;28;20211;-68
2022/01/22 03:21:41;;;;;;;17.45;15.63;;;;;;;-4.38;100.00;98984.09;2089088;28;20806;-69
2022/01/22 03:23:05;;;;;;;17.27;15.65;;;;;;;-4.41;100.00;98983.72;2082349;28;20192;-68
2022/01/22 03:28:09;;;;;;;16.67;15.43;;;;;;;-4.60;100.00;98986.13;2091064;28;20278;-68
2022/01/22 03:29:16;;;;;;;17.02;15.63;;;;;;;-4.68;100.00;98988.91;2083266;28;20211;-68
2022/01/22 03:30:18;;;;;;;16.67;15.52;;;;;;;-4.75;100.00;98985.50;2083350;28;20531;-68
2022/01/22 03:31:19;;;;;;;17.38;16.13;;;;;;;-4.79;100.00;98989.47;2082868;28;20195;-68
2022/01/22 03:32:21;;;;;;;17.33;15.97;;;;;;;-4.74;100.00;98994.09;2091027;28;20187;-68
2022/01/22 03:33:24;;;;;;;17.58;16.15;;;;;;;-4.77;100.00;98995.31;2090939;28;20210;-68
2022/01/22 03:34:27;;;;;;;16.10;14.90;;;;;;;-4.76;100.00;99004.72;2091163;28;20684;-68
2022/01/22 03:35:34;;;;;;;16.85;15.55;;;;;;;-4.79;100.00;98994.69;2090843;28;20209;-68
2022/01/22 03:36:36;;;;;;;16.60;15.30;;;;;;;-4.82;100.00;98992.47;2082778;28;20334;-67
2022/01/22 03:37:42;;;;;;;17.30;16.00;;;;;;;-4.87;100.00;98994.88;2082653;28;20207;-69
2022/01/22 03:38:43;;;;;;;16.90;15.65;;;;;;;-4.81;100.00;98994.09;2074703;28;20217;-69
2022/01/22 03:39:45;;;;;;;16.92;15.63;;;;;;;-4.83;100.00;98996.09;2074502;28;20283;-68
2022/01/22 03:40:49;;;;;;;17.95;16.50;;;;;;;-4.86;100.00;99001.69;2074620;28;20212;-68
2022/01/22 03:41:52;;;;;;;18.42;16.85;;;;;;;-4.88;100.00;98998.47;2083387;28;20195;-68
2022/01/22 03:42:53;;;;;;;17.30;15.95;;;;;;;-4.90;100.00;98996.06;2090892;28;20259;-69
2022/01/22 03:43:56;;;;;;;17.65;16.35;;;;;;;-4.90;100.00;98997.88;2082628;28;20223;-68
2022/01/22 03:44:58;;;;;;;17.30;16.10;;;;;;;-4.89;100.00;99002.88;2074469;28;20196;-68
2022/01/22 03:45:59;;;;;;;17.58;16.27;;;;;;;-4.87;100.00;99000.06;2074530;28;20203;-68
2022/01/22 03:47:02;;;;;;;16.33;14.93;;;;;;;-4.85;100.00;98992.91;2074391;28;20255;-68
2022/01/22 03:48:03;;;;;;;16.83;14.95;;;;;;;-4.84;100.00;98992.69;2083110;28;20195;-68
2022/01/22 03:49:06;;;;;;;17.15;15.95;;;;;;;-4.88;100.00;98986.25;2082550;28;20287;-69
2022/01/22 03:50:08;;;;;;;16.38;15.05;;;;;;;-4.84;100.00;98992.69;2074473;28;20220;-68
2022/01/22 03:51:10;;;;;;;17.10;15.60;;;;;;;-4.85;100.00;98993.69;2082198;28;20654;-68
2022/01/22 03:52:12;;;;;;;16.58;15.27;;;;;;;-4.87;100.00;98990.47;2083202;28;20191;-69
2022/01/22 03:53:13;;;;;;;16.98;15.57;;;;;;;-4.90;100.00;98996.06;2082516;28;20253;-68
2022/01/22 03:54:15;;;;;;;15.60;14.60;;;;;;;-4.92;100.00;98995.47;2074409;28;20646;-69
2022/01/22 03:55:30;;;;;;;16.15;14.98;;;;;;;-4.96;100.00;98996.84;2074590;28;20682;-69
2022/01/22 03:56:55;;;;;;;17.60;15.98;;;;;;;-5.00;100.00;98993.06;2082481;28;20195;-68
2022/01/22 03:58:01;;;;;;;16.33;15.05;;;;;;;-5.04;100.00;98989.22;2082502;28;20558;-69
2022/01/22 03:59:05;;;;;;;16.92;15.68;;;;;;;-5.06;100.00;98986.03;2082790;28;20196;-69
2022/01/22 04:00:15;;;;;;;16.58;15.43;;;;;;;-5.09;100.00;98986.44;2089821;28;20240;-68
2022/01/22 04:04:11;;;;;;;17.58;15.93;;;;;;;-5.29;100.00;98983.78;2072250;28;20204;-68
2022/01/22 04:05:12;;;;;;;18.20;17.00;;;;;;;-5.33;100.00;98984.38;2074839;28;20624;-70
2022/01/22 04:08:58;;;;;;;17.80;16.40;;;;;;;-5.49;100.00;98990.69;2074427;28;20206;-68
2022/01/22 04:10:04;;;;;;;18.27;16.58;;;;;;;-5.53;100.00;99000.69;2090617;28;20183;-70
2022/01/22 04:11:10;;;;;;;17.23;15.93;;;;;;;-5.56;100.00;99002.84;2090946;28;20183;-70
2022/01/22 04:12:14;;;;;;;17.83;16.27;;;;;;;-5.60;100.00;99002.44;2090769;28;20198;-68
2022/01/22 04:13:19;;;;;;;17.55;15.68;;;;;;;-5.61;100.00;99000.06;2082780;28;20705;-68
2022/01/22 04:14:24;;;;;;;17.05;15.65;;;;;;;-5.65;100.00;99001.41;2082801;28;20215;-70
2022/01/22 04:15:28;;;;;;;18.10;16.70;;;;;;;-5.70;100.00;99004.59;2082980;28;20191;-71
2022/01/22 04:16:30;;;;;;;17.42;16.02;;;;;;;-5.73;100.00;98997.22;2082811;28;20658;-69
2022/01/22 04:24:49;;;;;;;16.83;15.38;;;;;;;-5.80;100.00;98994.56;2090665;28;20191;-69
2022/01/22 04:25:46;;;;;;;18.73;16.83;;;;;;;-5.84;100.00;98998.53;2085054;28;20317;-70
2022/01/22 04:26:54;;;;;;;21.05;19.02;;;;;;;-5.82;100.00;99000.94;2083092;28;20681;-70
2022/01/22 04:28:02;;;;;;;25.60;18.20;;;;;;;-5.75;100.00;98994.78;2083615;28;20242;-70
2022/01/22 04:29:05;;;;;;;20.08;18.13;;;;;;;-5.72;100.00;99004.81;2083536;28;20192;-70
2022/01/22 04:30:09;;;;;;;22.33;20.05;;;;;;;-5.63;100.00;98999.44;2090602;28;20661;-68
2022/01/22 04:31:11;;;;;;;20.23;18.52;;;;;;;-5.65;100.00;98999.63;2091312;28;20191;-69
2022/01/22 04:32:11;;;;;;;19.05;17.23;;;;;;;-5.63;100.00;98994.25;2091184;28;20187;-68
2022/01/22 04:33:13;;;;;;;21.50;18.37;;;;;;;-5.61;100.00;99002.66;2090422;28;20306;-68
2022/01/22 04:34:15;;;;;;;20.65;18.55;;;;;;;-5.64;100.00;98995.25;2090464;28;20245;-68
2022/01/22 04:35:16;;;;;;;20.02;18.13;;;;;;;-5.64;100.00;99008.25;2090450;28;20199;-68
2022/01/22 04:36:19;;;;;;;24.23;19.88;;;;;;;-5.63;100.00;99010.66;2081498;28;20263;-68
2022/01/22 04:37:21;;;;;;;21.35;19.10;;;;;;;-5.63;100.00;99007.25;2090691;28;20175;-68
2022/01/22 04:38:24;;;;;;;23.17;19.90;;;;;;;-5.60;100.00;99012.84;2090319;28;20721;-68
2022/01/22 04:39:26;;;;;;;22.02;19.92;;;;;;;-5.57;100.00;99019.44;2090494;28;20198;-68
2022/01/22 04:40:28;;;;;;;23.80;20.30;;;;;;;-5.53;100.00;99011.09;2090393;28;20252;-68
2022/01/22 04:41:29;;;;;;;22.15;19.88;;;;;;;-5.55;100.00;99017.47;2082268;28;20200;-71
2022/01/22 04:42:34;;;;;;;23.23;20.83;;;;;;;-5.55;100.00;99014.88;2090533;28;20275;-70
2022/01/22 04:43:40;;;;;;;23.80;21.52;;;;;;;-5.53;100.00;99018.09;2091114;28;20206;-71
2022/01/22 04:44:50;;;;;;;24.70;21.60;;;;;;;-5.40;100.00;99021.53;2091237;28;20175;-70
2022/01/22 04:46:06;;;;;;;28.60;22.48;;;;;;;-5.43;100.00;99015.94;2091333;28;20254;-71
2022/01/22 04:47:19;;;;;;;28.17;22.70;;;;;;;-5.50;100.00;99021.09;2090435;28;20647;-71
2022/01/22 04:48:41;;;;;;;24.58;21.67;;;;;;;-5.51;100.00;99023.88;2083755;28;20192;-69
2022/01/22 04:52:38;;;;;;;26.40;22.27;;;;;;;-5.69;100.00;99042.59;2084625;28;20199;-69
2022/01/22 04:55:06;;;;;;;27.50;22.52;;;;;;;-5.60;100.00;99048.44;2052548;28;20198;-69
2022/01/22 04:56:11;;;;;;;27.05;21.58;;;;;;;-5.59;100.00;99050.84;2049900;28;20276;-69
2022/01/22 04:57:17;;;;;;;27.92;22.20;;;;;;;-5.57;100.00;99050.63;2087449;28;20295;-68
2022/01/22 04:58:18;;;;;;;25.20;22.25;;;;;;;-5.51;100.00;99057.66;2091163;28;20195;-71
2022/01/22 04:59:24;;;;;;;26.35;22.35;;;;;;;-5.47;100.00;99058.91;2090321;28;20232;-69
2022/01/22 05:00:26;;;;;;;27.33;22.45;;;;;;;-5.41;100.00;99055.50;2082524;28;20208;-68
2022/01/22 05:01:45;;;;;;;29.35;23.45;;;;;;;-5.33;100.00;99057.97;2090782;28;20245;-69
2022/01/22 05:03:26;;;;;;;31.40;23.50;;;;;;;-5.27;100.00;99061.59;2083039;28;20198;-69
2022/01/22 05:04:53;;;;;;;31.08;23.75;;;;;;;-5.24;100.00;99064.59;2090464;28;20202;-68
2022/01/22 05:06:16;;;;;;;31.67;23.38;;;;;;;-5.20;100.00;99063.22;2087107;28;20222;-69
2022/01/22 05:07:26;;;;;;;31.33;24.08;;;;;;;-5.11;100.00;99071.66;2090088;28;20559;-69
2022/01/22 05:08:53;;;;;;;29.27;23.42;;;;;;;-4.92;100.00;99076.13;2087387;28;20198;-68
2022/01/22 05:09:59;;;;;;;28.05;23.83;;;;;;;-4.88;100.00;99084.31;2090095;28;20676;-69
2022/01/22 05:11:00;;;;;;;26.17;23.42;;;;;;;-4.88;100.00;99085.13;2090257;28;20191;-69
2022/01/22 05:12:04;;;;;;;29.07;23.00;;;;;;;-4.76;100.00;99085.38;2090897;28;20191;-70
2022/01/22 05:13:07;;;;;;;28.85;22.63;;;;;;;-4.65;100.00;99090.00;2090136;28;20195;-70
2022/01/22 05:14:08;;;;;;;27.90;22.95;;;;;;;-4.55;100.00;99094.84;2082156;28;20202;-69
2022/01/22 05:15:11;;;;;;;24.63;21.87;;;;;;;-4.43;100.00;99095.88;2090456;28;20673;-69
2022/01/22 05:16:12;;;;;;;26.60;21.90;;;;;;;-4.44;100.00;99104.66;2090103;28;20226;-69
2022/01/22 05:17:17;;;;;;;28.27;22.95;;;;;;;-4.35;100.00;99107.88;2081881;28;20199;-69
2022/01/22 05:18:21;;;;;;;24.00;21.52;;;;;;;-4.28;100.00;99113.91;2090276;28;20201;-70
2022/01/22 05:19:30;;;;;;;28.13;22.23;;;;;;;-4.28;100.00;99104.28;2090082;28;20191;-69
2022/01/22 05:20:41;;;;;;;25.58;22.25;;;;;;;-4.21;100.00;99106.91;2090102;28;20191;-69
2022/01/22 05:21:44;;;;;;;30.70;22.98;;;;;;;-4.30;100.00;99114.09;2082816;28;20744;-69
2022/01/22 05:22:55;;;;;;;26.10;22.83;;;;;;;-4.34;100.00;99105.09;2081942;28;20666;-69
2022/01/22 05:23:59;;;;;;;24.42;21.75;;;;;;;-4.35;100.00;99108.69;2083187;28;20188;-69
2022/01/22 05:25:06;;;;;;;26.35;22.40;;;;;;;-4.40;100.00;99103.28;2082312;28;20573;-70
2022/01/22 05:26:23;;;;;;;25.15;21.50;;;;;;;-4.41;100.00;99108.69;2090425;28;20645;-70
2022/01/22 05:29:20;;;;;;;29.08;21.92;;;;;;;-4.53;100.00;99095.44;2085387;28;20568;-70
2022/01/22 05:30:57;;;;;;;26.25;22.00;;;;;;;-4.61;100.00;99098.22;2090550;28;20316;-69
2022/01/22 05:32:33;;;;;;;26.52;22.05;;;;;;;-4.72;100.00;99096.19;2089998;28;20203;-69
2022/01/22 05:37:45;;;;;;;25.77;22.45;;;;;;;-4.84;100.00;99098.56;2090383;28;20187;-69
2022/01/22 05:38:46;;;;;;;29.90;22.95;;;;;;;-4.91;100.00;99093.34;2089827;28;20218;-69
2022/01/22 05:39:49;;;;;;;25.35;22.52;;;;;;;-4.89;100.00;99095.75;2090161;28;20184;-69
2022/01/22 05:40:50;;;;;;;30.33;23.75;;;;;;;-4.82;100.00;99101.78;2090626;28;20661;-69
2022/01/22 05:41:53;;;;;;;24.65;21.65;;;;;;;-4.81;100.00;99105.97;2090638;28;20589;-69
2022/01/22 05:42:53;;;;;;;24.63;22.13;;;;;;;-4.82;100.00;99109.56;2089863;28;20195;-69
2022/01/22 05:43:55;;;;;;;27.63;22.80;;;;;;;-4.80;100.00;99110.19;2090141;28;20183;-69
2022/01/22 05:44:56;;;;;;;28.88;21.70;;;;;;;-4.76;100.00;99106.19;2089886;28;20614;-69
2022/01/22 05:46:01;;;;;;;24.73;21.30;;;;;;;-4.75;100.00;99104.41;2081161;28;20286;-69
2022/01/22 05:47:05;;;;;;;25.90;21.35;;;;;;;-4.68;100.00;99108.63;2082551;28;20203;-69
2022/01/22 05:48:07;;;;;;;25.75;20.55;;;;;;;-4.66;100.00;99106.63;2090046;28;20183;-70
2022/01/22 05:49:07;;;;;;;22.98;20.33;;;;;;;-4.64;100.00;99109.81;2090147;28;20200;-68
2022/01/22 05:50:23;;;;;;;21.92;19.80;;;;;;;-4.62;100.00;99110.44;2081636;28;20563;-69
2022/01/22 05:51:24;;;;;;;30.90;20.98;;;;;;;-4.65;100.00;99108.22;2081244;28;20281;-68
2022/01/22 05:52:33;;;;;;;25.30;20.35;;;;;;;-4.68;100.00;99110.44;2073634;28;20214;-69